createdAt,value
2018-06-16T00:02:07.300Z,86.20
2018-06-16T00:04:35.627Z,86.50
2018-06-16T00:07:04.371Z,86.90
2018-06-16T00:09:32.711Z,86.50
2018-06-16T00:12:01.035Z,87.00
2018-06-16T00:14:29.479Z,87.20
2018-06-16T00:16:57.799Z,87.20
2018-06-16T00:19:26.135Z,87.30
2018-06-16T00:21:54.487Z,87.30
2018-06-16T00:24:22.823Z,87.80
2018-06-16T00:26:51.143Z,87.40
2018-06-16T00:29:19.482Z,87.20
2018-06-16T00:31:47.795Z,87.60
2018-06-16T00:34:16.137Z,87.60
2018-06-16T00:39:12.528Z,88.00
2018-06-16T00:41:41.254Z,87.80
2018-06-16T00:44:09.615Z,87.20
2018-06-16T00:46:37.934Z,87.40
2018-06-16T00:49:06.290Z,87.70
2018-06-16T00:51:34.603Z,88.10
2018-06-16T00:54:02.987Z,88.10
2018-06-16T00:56:31.312Z,88.20
2018-06-16T00:58:59.647Z,88.20
2018-06-16T01:01:28.003Z,88.10
2018-06-16T01:03:56.346Z,88.20
2018-06-16T01:06:24.663Z,88.60
2018-06-16T01:08:53.011Z,88.50
2018-06-16T01:11:21.410Z,88.40
2018-06-16T01:13:49.742Z,88.50
2018-06-16T01:16:18.113Z,88.50
2018-06-16T01:18:46.423Z,88.30
2018-06-16T01:21:14.762Z,88.20
2018-06-16T01:23:43.119Z,88.50
2018-06-16T01:26:11.455Z,88.90
2018-06-16T01:28:39.795Z,88.80
2018-06-16T01:31:08.140Z,88.90
2018-06-16T01:33:36.477Z,89.00
2018-06-16T01:36:04.791Z,88.80
2018-06-16T01:38:33.138Z,88.70
2018-06-16T01:41:01.454Z,88.70
2018-06-16T01:43:29.795Z,89.00
2018-06-16T01:45:58.115Z,89.00
2018-06-16T01:48:26.446Z,89.20
2018-06-16T01:50:54.779Z,89.20
2018-06-16T01:53:23.116Z,89.00
2018-06-16T01:55:51.444Z,89.40
2018-06-16T01:58:19.775Z,89.60
2018-06-16T02:00:48.099Z,90.00
2018-06-16T02:03:16.444Z,89.90
2018-06-16T02:05:44.767Z,90.20
2018-06-16T02:08:13.094Z,90.20
2018-06-16T02:10:41.411Z,90.10
2018-06-16T02:13:09.722Z,90.00
2018-06-16T02:15:38.094Z,90.70
2018-06-16T02:18:06.419Z,90.70
2018-06-16T02:20:34.759Z,91.20
2018-06-16T02:23:03.083Z,91.50
2018-06-16T02:25:31.528Z,90.70
2018-06-16T02:27:59.840Z,90.60
2018-06-16T02:30:28.363Z,90.60
2018-06-16T02:32:56.707Z,91.00
2018-06-16T02:35:25.031Z,91.40
2018-06-16T02:37:53.403Z,91.50
2018-06-16T02:40:21.751Z,91.50
2018-06-16T02:42:50.075Z,90.80
2018-06-16T02:45:18.408Z,90.20
2018-06-16T02:47:46.743Z,90.00
2018-06-16T02:50:15.125Z,90.00
2018-06-16T02:52:43.424Z,90.20
2018-06-16T02:55:11.763Z,90.50
2018-06-16T02:57:40.094Z,90.50
2018-06-16T03:00:08.562Z,90.40
2018-06-16T03:02:36.883Z,90.00
2018-06-16T03:05:05.210Z,90.60
2018-06-16T03:07:33.522Z,91.10
2018-06-16T03:10:01.860Z,91.50
2018-06-16T03:12:30.195Z,92.10
2018-06-16T03:14:58.527Z,91.90
2018-06-16T03:17:26.939Z,91.90
2018-06-16T03:19:55.273Z,91.90
2018-06-16T03:22:23.647Z,92.10
2018-06-16T03:24:52.031Z,92.10
2018-06-16T03:27:20.347Z,92.10
2018-06-16T03:29:48.703Z,92.20
2018-06-16T03:32:17.055Z,92.10
2018-06-16T03:34:45.388Z,92.20
2018-06-16T03:37:13.907Z,90.80
2018-06-16T03:39:42.269Z,91.00
2018-06-16T03:42:10.591Z,91.70
2018-06-16T03:44:38.934Z,92.00
2018-06-16T03:47:07.417Z,92.50
2018-06-16T03:49:35.807Z,92.50
2018-06-16T03:52:04.131Z,92.40
2018-06-16T03:54:32.475Z,92.60
2018-06-16T03:57:00.800Z,92.70
2018-06-16T03:59:29.137Z,92.70
2018-06-16T04:01:57.459Z,92.30
2018-06-16T04:04:25.807Z,92.30
2018-06-16T04:06:54.142Z,92.80
2018-06-16T04:09:22.503Z,93.60
2018-06-16T04:11:50.827Z,93.60
2018-06-16T04:14:19.150Z,93.70
2018-06-16T04:16:47.487Z,93.70
2018-06-16T04:19:15.798Z,93.50
2018-06-16T04:21:44.140Z,93.10
2018-06-16T04:24:12.471Z,93.20
2018-06-16T04:26:40.806Z,93.20
2018-06-16T04:29:09.151Z,93.70
2018-06-16T04:31:37.491Z,94.30
2018-06-16T04:34:05.811Z,93.90
2018-06-16T04:36:34.164Z,93.90
2018-06-16T04:39:02.523Z,93.90
2018-06-16T04:41:30.883Z,93.60
2018-06-16T04:43:59.213Z,93.60
2018-06-16T04:46:27.639Z,93.20
2018-06-16T04:48:55.979Z,93.10
2018-06-16T04:51:24.326Z,92.80
2018-06-16T04:53:52.647Z,92.90
2018-06-16T04:56:21.002Z,92.30
2018-06-16T04:58:49.330Z,92.60
2018-06-16T05:01:18.051Z,92.70
2018-06-16T05:03:46.370Z,92.10
2018-06-16T05:06:14.715Z,91.70
2018-06-16T05:08:43.092Z,91.40
2018-06-16T05:11:11.388Z,91.10
2018-06-16T05:13:39.706Z,91.10
2018-06-16T05:16:08.047Z,91.00
2018-06-16T05:18:36.379Z,91.00
2018-06-16T05:21:04.955Z,91.40
2018-06-16T05:23:33.270Z,91.50
2018-06-16T05:26:01.606Z,91.20
2018-06-16T05:28:29.919Z,91.40
2018-06-16T05:30:58.255Z,91.20
2018-06-16T05:33:26.648Z,91.70
2018-06-16T05:35:55.070Z,91.40
2018-06-16T05:38:23.423Z,91.20
2018-06-16T05:40:51.752Z,90.60
2018-06-16T05:43:20.151Z,90.10
2018-06-16T05:45:48.487Z,89.50
2018-06-16T05:48:16.802Z,89.40
2018-06-16T05:50:45.160Z,88.90
2018-06-16T05:53:13.483Z,88.80
2018-06-16T05:55:41.823Z,88.80
2018-06-16T05:58:10.155Z,86.90
2018-06-16T06:00:38.507Z,87.10
2018-06-16T06:03:06.836Z,86.10
2018-06-16T06:05:35.180Z,85.80
2018-06-16T06:08:03.519Z,85.50
2018-06-16T06:10:31.923Z,85.20
2018-06-16T06:13:00.212Z,85.00
2018-06-16T06:15:28.537Z,84.80
2018-06-16T06:17:56.880Z,84.80
2018-06-16T06:20:25.223Z,85.10
2018-06-16T06:22:53.887Z,84.10
2018-06-16T06:25:22.213Z,84.20
2018-06-16T06:27:50.551Z,84.80
2018-06-16T06:30:18.882Z,84.60
2018-06-16T06:32:47.248Z,83.60
2018-06-16T06:35:15.578Z,82.80
2018-06-16T06:37:43.939Z,82.70
2018-06-16T06:40:12.267Z,81.50
2018-06-16T06:42:40.611Z,81.60
2018-06-16T06:45:08.939Z,82.40
2018-06-16T06:47:37.296Z,83.30
2018-06-16T06:50:05.648Z,83.40
2018-06-16T06:52:33.983Z,83.30
2018-06-16T06:55:02.299Z,83.40
2018-06-16T06:57:30.669Z,83.40
2018-06-16T06:59:59.015Z,83.50
2018-06-16T07:02:27.579Z,82.70
2018-06-16T07:04:55.992Z,81.80
2018-06-16T07:07:24.346Z,81.40
2018-06-16T07:09:52.671Z,80.90
2018-06-16T07:12:20.999Z,81.30
2018-06-16T07:14:49.318Z,80.60
2018-06-16T07:17:17.651Z,81.50
2018-06-16T07:19:46.016Z,79.80
2018-06-16T07:22:14.359Z,78.40
2018-06-16T07:24:42.669Z,79.10
2018-06-16T07:27:11.012Z,76.60
2018-06-16T07:29:39.337Z,76.90
2018-06-16T07:32:07.661Z,74.20
2018-06-16T07:34:35.967Z,75.60
2018-06-16T07:37:04.308Z,76.50
2018-06-16T07:39:32.667Z,73.50
2018-06-16T07:42:01.012Z,71.30
2018-06-16T07:44:29.339Z,70.80
2018-06-16T07:49:25.732Z,75.00
2018-06-16T07:51:54.062Z,74.10
2018-06-16T07:54:22.374Z,74.10
2018-06-16T07:56:50.765Z,72.80
2018-06-16T07:59:19.116Z,73.10
2018-06-16T08:01:47.439Z,71.90
2018-06-16T08:04:15.749Z,71.40
2018-06-16T08:06:44.075Z,72.30
2018-06-16T08:09:12.397Z,70.20
2018-06-16T08:11:40.744Z,69.30
2018-06-16T08:14:09.072Z,69.20
2018-06-16T08:16:37.440Z,70.40
2018-06-16T08:19:05.794Z,68.30
2018-06-16T08:21:34.132Z,69.30
2018-06-16T08:24:02.468Z,69.60
2018-06-16T08:26:30.790Z,68.80
2018-06-16T08:28:59.131Z,68.10
2018-06-16T08:31:27.479Z,68.00
2018-06-16T08:33:55.841Z,68.40
2018-06-16T08:36:24.155Z,67.50
2018-06-16T08:38:52.494Z,68.50
2018-06-16T08:41:20.827Z,69.10
2018-06-16T08:43:49.166Z,68.70
2018-06-16T08:46:17.563Z,67.50
2018-06-16T08:48:45.946Z,66.40
2018-06-16T08:51:14.287Z,66.10
2018-06-16T08:53:42.632Z,66.30
2018-06-16T08:56:10.951Z,67.20
2018-06-16T08:58:39.310Z,67.50
2018-06-16T09:01:07.632Z,68.40
2018-06-16T09:03:35.975Z,67.70
2018-06-16T09:06:04.302Z,67.60
2018-06-16T09:08:32.679Z,68.20
2018-06-16T09:11:01.037Z,68.80
2018-06-16T09:13:29.378Z,67.80
2018-06-16T09:15:57.696Z,64.70
2018-06-16T09:18:26.036Z,64.20
2018-06-16T09:20:54.382Z,65.10
2018-06-16T09:23:22.784Z,66.80
2018-06-16T09:25:51.110Z,65.60
2018-06-16T09:28:19.451Z,65.80
2018-06-16T09:33:15.851Z,66.90
2018-06-16T09:35:44.278Z,66.30
2018-06-16T09:38:12.619Z,65.00
2018-06-16T09:40:40.941Z,64.90
2018-06-16T09:43:09.288Z,65.80
2018-06-16T09:45:37.615Z,64.70
2018-06-16T09:48:05.984Z,62.20
2018-06-16T09:50:34.324Z,61.70
2018-06-16T09:53:02.663Z,62.10
2018-06-16T09:55:30.975Z,59.70
2018-06-16T09:57:59.302Z,60.70
2018-06-16T10:00:33.011Z,62.10
2018-06-16T10:03:01.362Z,62.50
2018-06-16T10:05:29.721Z,62.20
2018-06-16T10:07:58.059Z,60.90
2018-06-16T10:10:26.370Z,60.50
2018-06-16T10:12:54.682Z,62.60
2018-06-16T10:15:22.983Z,63.10
2018-06-16T10:17:51.294Z,61.40
2018-06-16T10:20:19.755Z,63.00
2018-06-16T10:22:48.291Z,61.80
2018-06-16T10:25:16.738Z,62.00
2018-06-16T10:27:45.033Z,61.70
2018-06-16T10:30:13.350Z,60.40
2018-06-16T10:35:09.895Z,60.90
2018-06-16T10:37:38.198Z,60.50
2018-06-16T10:40:06.515Z,61.30
2018-06-16T10:42:34.822Z,60.00
2018-06-16T10:45:03.175Z,61.70
2018-06-16T10:47:31.494Z,60.50
2018-06-16T10:49:59.838Z,60.20
2018-06-16T10:52:28.183Z,61.40
2018-06-16T10:54:56.506Z,60.70
2018-06-16T10:57:24.820Z,60.10
2018-06-16T10:59:53.170Z,60.50
2018-06-16T11:02:21.480Z,61.30
2018-06-16T11:04:49.814Z,60.20
2018-06-16T11:07:18.118Z,59.70
2018-06-16T11:09:46.511Z,59.80
2018-06-16T11:12:14.926Z,61.30
2018-06-16T11:14:43.265Z,59.70
2018-06-16T11:17:11.574Z,61.00
2018-06-16T11:19:39.902Z,59.80
2018-06-16T11:22:08.210Z,60.30
2018-06-16T11:24:36.543Z,60.10
2018-06-16T11:27:04.976Z,58.80
2018-06-16T11:29:33.302Z,58.30
2018-06-16T11:32:01.858Z,60.90
2018-06-16T11:34:30.212Z,59.90
2018-06-16T11:36:58.547Z,59.80
2018-06-16T11:39:26.894Z,61.30
2018-06-16T11:41:55.202Z,62.40
2018-06-16T11:44:23.531Z,59.10
2018-06-16T11:46:51.842Z,61.70
2018-06-16T11:49:20.173Z,57.60
2018-06-16T11:51:48.462Z,57.90
2018-06-16T11:54:16.775Z,58.60
2018-06-16T11:56:45.083Z,60.30
2018-06-16T11:59:13.406Z,59.70
2018-06-16T12:01:41.706Z,61.00
2018-06-16T12:04:10.150Z,60.50
2018-06-16T12:06:38.626Z,58.70
2018-06-16T12:09:09.491Z,60.50
2018-06-16T12:11:37.838Z,60.30
2018-06-16T12:14:06.622Z,61.50
2018-06-16T12:16:34.918Z,60.70
2018-06-16T12:19:03.244Z,60.50
2018-06-16T12:21:31.539Z,60.30
2018-06-16T12:23:59.850Z,59.60
2018-06-16T12:26:28.187Z,60.80
2018-06-16T12:28:56.479Z,60.20
2018-06-16T12:31:24.806Z,60.10
2018-06-16T12:33:53.109Z,59.40
2018-06-16T12:36:21.422Z,57.90
2018-06-16T12:38:49.711Z,57.90
2018-06-16T12:41:18.024Z,57.10
2018-06-16T12:43:46.453Z,58.90
2018-06-16T12:46:14.778Z,60.30
2018-06-16T12:48:43.078Z,58.60
2018-06-16T12:51:11.411Z,59.70
2018-06-16T12:53:39.719Z,60.30
2018-06-16T12:56:08.038Z,57.40
2018-06-16T12:58:36.334Z,57.80
2018-06-16T13:01:04.646Z,57.60
2018-06-16T13:03:32.946Z,58.80
2018-06-16T13:06:01.263Z,60.10
2018-06-16T13:08:29.562Z,59.20
2018-06-16T13:10:57.886Z,58.30
2018-06-16T13:13:26.183Z,59.40
2018-06-16T13:15:54.500Z,58.80
2018-06-16T13:18:22.795Z,57.50
2018-06-16T13:20:51.110Z,59.00
2018-06-16T13:23:19.403Z,58.80
2018-06-16T13:25:47.755Z,58.90
2018-06-16T13:28:16.148Z,59.00
2018-06-16T13:30:44.478Z,60.20
2018-06-16T13:33:12.971Z,59.40
2018-06-16T13:35:41.303Z,60.20
2018-06-16T13:38:09.598Z,59.50
2018-06-16T13:40:37.935Z,61.30
2018-06-16T13:43:06.332Z,59.60
2018-06-16T13:45:34.600Z,59.20
2018-06-16T13:48:02.899Z,59.90
2018-06-16T13:50:31.308Z,59.40
2018-06-16T13:53:00.086Z,60.20
2018-06-16T13:55:28.605Z,61.10
2018-06-16T13:57:56.916Z,61.10
2018-06-16T14:00:25.594Z,62.30
2018-06-16T14:02:53.916Z,62.30
2018-06-16T14:05:22.474Z,61.80
2018-06-16T14:07:50.783Z,61.30
2018-06-16T14:10:19.108Z,62.40
2018-06-16T14:12:47.426Z,62.90
2018-06-16T14:15:15.750Z,63.50
2018-06-16T14:17:44.063Z,63.60
2018-06-16T14:20:12.534Z,63.00
2018-06-16T14:22:40.924Z,63.70
2018-06-16T14:25:09.235Z,64.60
2018-06-16T14:27:37.571Z,64.50
2018-06-16T14:30:05.890Z,65.00
2018-06-16T14:32:34.219Z,65.30
2018-06-16T14:35:02.551Z,64.40
2018-06-16T14:37:30.913Z,64.80
2018-06-16T14:39:59.252Z,64.00
2018-06-16T14:42:27.626Z,63.20
2018-06-16T14:44:55.943Z,62.70
2018-06-16T14:47:24.272Z,62.10
2018-06-16T14:49:52.582Z,61.70
2018-06-16T14:52:20.903Z,62.00
2018-06-16T14:54:49.214Z,61.60
2018-06-16T14:57:17.530Z,63.70
2018-06-16T14:59:45.847Z,63.20
2018-06-16T15:02:14.466Z,60.50
2018-06-16T15:04:42.882Z,60.90
2018-06-16T15:07:11.290Z,63.50
2018-06-16T15:09:39.602Z,63.80
2018-06-16T15:12:07.979Z,63.50
2018-06-16T15:14:36.291Z,63.70
2018-06-16T15:17:04.714Z,63.40
2018-06-16T15:19:33.023Z,63.40
2018-06-16T15:22:01.334Z,63.20
2018-06-16T15:24:29.775Z,64.20
2018-06-16T15:26:58.092Z,63.00
2018-06-16T15:29:26.420Z,62.20
2018-06-16T15:31:54.814Z,62.10
2018-06-16T15:34:23.144Z,61.30
2018-06-16T15:36:51.642Z,61.60
2018-06-16T15:39:19.938Z,62.20
2018-06-16T15:41:48.259Z,62.30
2018-06-16T15:44:16.554Z,63.00
2018-06-16T15:46:45.044Z,62.60
2018-06-16T15:49:13.348Z,62.80
2018-06-16T15:51:41.666Z,62.60
2018-06-16T15:54:09.976Z,61.90
2018-06-16T15:56:38.338Z,63.00
2018-06-16T15:59:06.660Z,62.90
2018-06-16T16:01:34.991Z,62.70
2018-06-16T16:04:03.290Z,63.80
2018-06-16T16:06:31.610Z,63.10
2018-06-16T16:08:59.934Z,62.80
2018-06-16T16:11:28.263Z,62.60
2018-06-16T16:13:56.574Z,63.40
2018-06-16T16:16:24.918Z,64.80
2018-06-16T16:18:53.218Z,63.50
2018-06-16T16:23:49.604Z,65.00
2018-06-16T16:26:17.915Z,64.10
2018-06-16T16:28:46.247Z,64.60
2018-06-16T16:31:14.542Z,64.50
2018-06-16T16:33:42.887Z,64.50
2018-06-16T16:36:11.198Z,64.70
2018-06-16T16:38:39.898Z,65.00
2018-06-16T16:41:08.222Z,66.50
2018-06-16T16:43:36.668Z,72.30
2018-06-16T16:46:05.031Z,77.10
2018-06-16T16:48:33.364Z,81.00
2018-06-16T16:51:01.687Z,83.30
2018-06-16T16:53:30.057Z,84.90
2018-06-16T16:55:58.377Z,87.40
2018-06-16T16:58:26.729Z,86.50
2018-06-16T17:00:55.058Z,86.50
2018-06-16T17:03:23.378Z,87.00
2018-06-16T17:05:51.711Z,85.50
2018-06-16T17:08:20.046Z,86.00
2018-06-16T17:10:48.351Z,86.50
2018-06-16T17:13:16.731Z,86.50
2018-06-16T17:15:45.027Z,85.70
2018-06-16T17:18:13.481Z,86.60
2018-06-16T17:20:41.787Z,87.30
2018-06-16T17:23:10.103Z,86.70
2018-06-16T17:25:38.474Z,87.00
2018-06-16T17:28:06.930Z,87.30
2018-06-16T17:30:35.390Z,87.70
2018-06-16T17:33:03.702Z,88.40
2018-06-16T17:35:32.010Z,88.50
2018-06-16T17:38:00.337Z,87.70
2018-06-16T17:40:28.658Z,87.10
2018-06-16T17:42:56.974Z,87.30
2018-06-16T17:45:25.274Z,87.20
2018-06-16T17:47:53.590Z,88.20
2018-06-16T17:50:21.911Z,88.40
2018-06-16T17:52:50.258Z,88.70
2018-06-16T17:55:18.570Z,88.30
2018-06-16T17:57:46.897Z,87.90
2018-06-16T18:00:15.198Z,88.50
2018-06-16T18:02:43.518Z,89.00
2018-06-16T18:05:11.826Z,88.40
2018-06-16T18:07:40.179Z,87.50
2018-06-16T18:10:08.510Z,87.80
2018-06-16T18:12:36.826Z,87.60
2018-06-16T18:15:05.162Z,87.20
2018-06-16T18:20:01.520Z,87.50
2018-06-16T18:22:29.846Z,87.30
2018-06-16T18:24:58.151Z,87.40
2018-06-16T18:27:26.451Z,87.30
2018-06-16T18:29:54.788Z,87.30
2018-06-16T18:32:23.090Z,88.10
2018-06-16T18:37:19.449Z,91.90
2018-06-16T18:39:47.778Z,92.00
2018-06-16T18:42:16.082Z,93.90
2018-06-16T18:44:44.407Z,93.20
2018-06-16T18:47:12.787Z,91.90
2018-06-16T18:49:41.195Z,91.80
2018-06-16T18:52:09.466Z,93.50
2018-06-16T18:54:37.797Z,93.60
2018-06-16T18:57:06.152Z,93.70
2018-06-16T18:59:34.495Z,93.10
2018-06-16T19:02:02.807Z,92.80
2018-06-16T19:04:31.350Z,93.50
2018-06-16T19:06:59.678Z,93.80
2018-06-16T19:09:28.023Z,94.70
2018-06-16T19:11:56.437Z,94.40
2018-06-16T19:14:24.905Z,94.00
2018-06-16T19:16:53.222Z,96.00
2018-06-16T19:19:21.622Z,94.70
2018-06-16T19:21:50.134Z,95.50
2018-06-16T19:24:18.502Z,95.90
2018-06-16T19:26:46.827Z,96.10
2018-06-16T19:29:15.234Z,95.40
2018-06-16T19:31:43.558Z,95.40
2018-06-16T19:34:11.894Z,95.10
2018-06-16T19:36:40.206Z,95.60
2018-06-16T19:39:10.642Z,94.90
2018-06-16T19:41:38.956Z,95.50
2018-06-16T19:44:07.831Z,95.70
2018-06-16T19:46:36.318Z,95.70
2018-06-16T19:49:04.826Z,95.20
2018-06-16T19:51:33.139Z,94.90
2018-06-16T19:54:01.472Z,94.80
2018-06-16T19:56:29.786Z,95.40
2018-06-16T19:58:58.806Z,95.00
2018-06-16T20:01:27.582Z,93.10
2018-06-16T20:03:56.194Z,95.00
2018-06-16T20:06:24.510Z,95.10
2018-06-16T20:08:52.862Z,94.70
2018-06-16T20:11:21.274Z,94.70
2018-06-16T20:13:49.763Z,94.80
2018-06-16T20:16:18.088Z,95.00
2018-06-16T20:18:46.418Z,95.20
2018-06-16T20:21:14.756Z,95.70
2018-06-16T20:23:43.247Z,96.10
2018-06-16T20:26:12.018Z,96.60
2018-06-16T20:28:40.350Z,96.20
2018-06-16T20:31:08.835Z,95.90
2018-06-16T20:33:37.143Z,95.70
2018-06-16T20:36:05.474Z,96.20
2018-06-16T20:38:33.787Z,96.30
2018-06-16T20:41:02.274Z,97.10
2018-06-16T20:43:30.594Z,97.20
2018-06-16T20:45:58.922Z,96.90
2018-06-16T20:48:27.251Z,97.60
2018-06-16T20:50:55.605Z,98.20
2018-06-16T20:53:23.926Z,98.50
2018-06-16T20:55:52.255Z,98.20
2018-06-16T20:58:20.571Z,98.80
2018-06-16T21:00:48.911Z,98.20
2018-06-16T21:03:17.225Z,98.40
2018-06-16T21:08:13.717Z,97.30
2018-06-16T21:10:42.046Z,97.20
2018-06-16T21:13:10.358Z,97.00
2018-06-16T21:15:38.676Z,97.10
2018-06-16T21:18:07.215Z,97.30
2018-06-16T21:20:35.535Z,96.40
2018-06-16T21:23:03.834Z,97.00
2018-06-16T21:25:32.167Z,96.70
2018-06-16T21:28:00.536Z,95.80
2018-06-16T21:30:28.854Z,95.80
2018-06-16T21:32:57.159Z,96.20
2018-06-16T21:35:25.487Z,95.50
2018-06-16T21:37:53.790Z,95.10
2018-06-16T21:40:22.119Z,95.30
2018-06-16T21:42:50.428Z,95.40
2018-06-16T21:45:18.766Z,95.90
2018-06-16T21:47:47.064Z,96.40
2018-06-16T21:50:15.409Z,96.90
2018-06-16T21:52:43.719Z,96.80
2018-06-16T21:55:12.036Z,96.60
2018-06-16T21:57:40.338Z,96.30
2018-06-16T22:00:11.322Z,96.10
2018-06-16T22:02:39.639Z,95.20
2018-06-16T22:05:08.418Z,92.70
2018-06-16T22:07:36.762Z,93.70
2018-06-16T22:10:05.714Z,93.10
2018-06-16T22:12:34.025Z,94.00
2018-06-16T22:15:02.383Z,92.60
2018-06-16T22:17:30.688Z,92.30
2018-06-16T22:19:59.013Z,92.30
2018-06-16T22:22:27.318Z,91.60
2018-06-16T22:24:55.674Z,91.90
2018-06-16T22:27:23.975Z,92.50
2018-06-16T22:29:52.274Z,92.60
2018-06-16T22:32:20.618Z,92.20
2018-06-16T22:34:48.922Z,91.50
2018-06-16T22:37:17.239Z,92.40
2018-06-16T22:39:45.547Z,91.90
2018-06-16T22:42:13.878Z,92.10
2018-06-16T22:44:42.206Z,91.70
2018-06-16T22:47:10.523Z,91.80
2018-06-16T22:49:38.854Z,91.80
2018-06-16T22:52:07.196Z,92.80
2018-06-16T22:54:35.502Z,92.60
2018-06-16T22:57:03.838Z,92.70
2018-06-16T22:59:32.154Z,92.30
2018-06-16T23:02:00.618Z,93.30
2018-06-16T23:04:28.927Z,93.30
2018-06-16T23:06:57.251Z,93.00
2018-06-16T23:09:25.564Z,93.30
2018-06-16T23:11:53.892Z,93.40
2018-06-16T23:14:22.206Z,93.50
2018-06-16T23:16:50.535Z,93.00
2018-06-16T23:19:18.846Z,93.30
2018-06-16T23:21:47.263Z,93.00
2018-06-16T23:24:15.594Z,92.90
2018-06-16T23:26:43.939Z,93.30
2018-06-16T23:29:12.239Z,92.90
2018-06-16T23:31:40.578Z,93.20
2018-06-16T23:34:08.895Z,93.50
2018-06-16T23:36:37.274Z,93.90
2018-06-16T23:39:08.211Z,94.00
2018-06-16T23:41:36.578Z,93.90
2018-06-16T23:44:05.099Z,94.30
2018-06-16T23:46:33.619Z,94.40
2018-06-16T23:49:02.877Z,94.40
2018-06-16T23:51:31.226Z,94.80
2018-06-16T23:53:59.540Z,94.90
2018-06-16T23:56:27.875Z,94.70
2018-06-16T23:58:56.194Z,94.50
